X  CloseMetar Aviation Weather Data     KABQ Albuquerque International Sunport

Temperature

68°F Temperature

46°F Dewpoint

46% Humidity



Wind

 6 MPH

10 KM/H

 3 M/S

 5 KTS



150°
South South
East
Current Conditions

Partly Cloudy Partly Cloudy
Pressure 1016.92 (hPa) - 30.03 (in)
Visibility 10 (mi) - 16.1 (km)
Airport
Airport-code KABQ

Location Albuquerque International Sunport 16 (mi)

Metar:
KABQ 200752Z 15005KT 10SM FEW120 SCT250 20/08 A3003 RMK AO2 SLP080 T02000083 $

Time: 09-20-2019 1:52